Woodstock, GA

34° 08' 01"N, 84° 28' 00"W, Elevation 900 ft.
Eastern Time

Hourly observations for the last 72 hours

Date Time Temperature (F) Humi-
dity

(%)
Wind
(mph)
Pressure Rain (in) Sun
(W/m2)
ET
(in)
Air Dew 6 Hour 1 Hr 3 Hr 6 Hr Day
Alt
(in)
Sea
Level

(mb)
Max Min
14 08:00 62.7 61.2 62.8 62.5 95 Calm 29.94 1014.0 0.00 9 0.000
14 07:00 62.7 61.2 95 Calm 29.93 1013.6 0.00 0 0.000
14 06:00 62.6 61.1 95 Calm 29.92 1013.1 0.00 0 0.000
14 05:00 62.7 61.2 95 Calm 29.91 1012.9 0.00 0 0.000
14 04:00 62.7 61.2 95 Calm 29.90 1012.7 0.00 0 0.000
14 03:00 62.6 61.1 95 Calm 29.90 1012.5 0.00 0 0.000
14 02:00 62.7 61.2 64.5 62.4 95 Calm 29.90 1012.4 0.00 0 0.000
14 01:00 62.7 60.9 94 Calm 29.91 1012.8 0.00 0 0.000
14 00:00 62.5 60.8 94 Calm 29.91 1012.8 0.00 0 0.000
13 23:00 62.5 60.8 94 Calm 29.90 1012.7 0.00 0 0.000
13 22:00 62.5 60.4 93 Calm 29.90 1012.4 0.00 0 0.000
13 21:00 62.8 60.1 91 Calm 29.90 1012.4 0.00 0 0.000
13 20:00 64.5 61.2 70.1 64.5 89 Calm 29.88 1012.0 0.00 0 0.000
13 19:00 68.0 63.7 86 Calm 29.88 1011.8 0.00 28 0.000
13 18:00 69.1 61.2 76 Calm 29.87 1011.6 0.00 149 0.000
13 17:00 69.2 63.1 81 Calm 29.87 1011.5 0.00 192 0.000
13 16:00 70.1 62.2 76 Calm 29.87 1011.7 0.00 204 0.000
13 15:00 69.5 60.9 74 Calm 29.88 1012.0 0.00 204 0.000
13 14:00 68.4 62.0 68.4 60.1 80 Calm 29.89 1012.4 0.00 285 0.000
13 13:00 66.9 60.9 81 Calm 29.90 1012.6 0.00 148 0.000
13 12:00 67.3 60.2 78 Calm 29.90 1012.7 0.00 258 0.000
13 11:00 66.8 60.4 80 Calm 29.91 1012.8 0.00 301 0.000
13 10:00 64.5 61.2 89 Calm 29.90 1012.7 0.00 137 0.000
13 09:00 61.4 59.7 94 Calm 29.89 1012.2 0.00 209 0.000
13 08:00 60.3 58.9 60.4 59.3 95 Calm 29.88 1011.9 0.00 30 0.000
13 07:00 59.9 58.5 95 Calm 29.86 1011.1 0.00 0 0.000
13 06:00 59.5 58.1 95 Calm 29.85 1010.7 0.00 0 0.000
13 05:00 60.1 58.7 95 Calm 29.83 1010.2 0.00 0 0.000
13 04:00 60.0 58.6 95 Calm 29.81 1009.5 0.00 0 0.000
13 03:00 59.9 58.5 95 Calm 29.82 1010.0 0.00 0 0.000
13 02:00 60.0 58.6 61.4 59.9 95 Calm 29.82 1009.9 0.00 0 0.000
13 01:00 60.4 59.0 95 Calm 29.83 1010.1 0.00 0 0.000
13 00:00 60.2 58.8 95 Calm 29.83 1010.1 0.08 0 0.000
12 23:00 60.6 59.2 95 Calm 29.84 1010.4 0.08 0 0.000
12 22:00 60.8 59.4 95 Calm 29.84 1010.4 0.08 0 0.000
12 21:00 61.2 59.8 95 Calm 29.82 1010.0 0.08 0 0.000
12 20:00 61.4 60.0 63.1 61.1 95 Calm 29.80 1009.3 0.02 0.02 0.08 0 0.000
12 19:00 61.4 59.7 94 Calm 29.79 1008.8 0.08 23 0.000
12 18:00 61.2 59.5 94 Calm 29.78 1008.4 0.02 0.08 44 0.000
12 17:00 62.8 60.7 93 Calm 29.76 1007.8 0.06 42 0.000
12 16:00 62.9 60.2 91 Calm 29.75 1007.7 0.06 46 0.000
12 15:00 62.6 60.5 93 Calm 29.75 1007.7 0.06 91 0.000
12 14:00 62.2 60.5 62.2 59.3 94 Calm 29.75 1007.6 0.01 0.06 236 0.000
12 13:00 61.9 60.5 95 Calm 29.74 1007.1 0.06 204 0.000
12 12:00 60.9 59.5 95 Calm 29.73 1006.8 0.06 130 0.000
12 11:00 60.2 58.8 95 Calm 29.71 1006.2 0.01 0.01 0.06 118 0.000
12 10:00 59.8 58.4 95 Calm 29.69 1005.6 0.05 88 0.000
12 09:00 62.2 61.6 98 Calm 29.67 1004.8 0.05 5 0.000
12 08:00 62.2 61.6 62.2 62.2 98 Calm 29.64 1003.9 0.05 5 0.000
12 07:00 62.2 61.6 98 Calm 29.62 1003.0 0.05 5 0.000
12 06:00 62.2 61.6 98 Calm 29.58 1001.8 0.05 5 0.000
12 05:00 62.2 61.6 98 Calm 29.56 1000.9 0.05 5 0.000
12 04:00 62.2 61.6 98 Calm 29.54 1000.4 0.05 5 0.000
12 03:00 62.2 61.6 98 Calm 29.54 1000.3 0.05 5 0.000
12 02:00 62.2 61.6 62.4 60.6 98 Calm 29.53 999.9 0.02 0.08 0.25 0.05 5 0.000
12 01:00 61.8 60.1 94 Calm 29.52 999.6 0.03 0.03 0 0.000
12 00:00 61.6 59.9 94 Calm 29.52 999.6 0.03 2.40 0 0.000
11 23:00 61.3 59.6 94 Calm 29.51 999.5 0.04 0.17 2.37 0 0.000
11 22:00 60.8 59.1 94 Calm 29.52 999.7 0.04 2.33 0 0.000
11 21:00 60.7 59.0 94 Calm 29.53 1000.1 0.09 2.29 0 0.000
11 20:00 60.9 59.2 60.9 58.0 94 Calm 29.54 1000.2 0.17 0.88 1.54 2.20 0 0.000
11 19:00 60.3 58.6 94 Calm 29.57 1001.4 0.30 2.03 0 0.000
11 18:00 59.5 57.8 94 Calm 29.57 1001.2 0.41 1.73 5 0.000
11 17:00 58.8 57.1 94 Calm 29.61 1002.8 0.32 0.66 1.32 11 0.000
11 16:00 58.2 56.2 93 Calm 29.63 1003.4 0.16 1.00 32 0.000
11 15:00 58.1 56.1 93 Calm 29.67 1004.6 0.18 0.84 56 0.000
11 14:00 58.5 56.2 59.3 54.0 92 Calm 29.78 1008.5 0.04 0.11 0.65 0.66 40 0.000
11 13:00 59.1 57.1 93 Calm 29.81 1009.4 0.03 0.62 56 0.000
11 12:00 58.7 57.0 94 Calm 29.86 1011.1 0.04 0.59 56 0.000
11 11:00 54.0 52.9 96 Calm 29.90 1012.4 0.54 0.55 19 0.000
11 10:00 54.0 52.9 96 Calm 29.93 1013.6 0.54 0.55 19 0.000
11 09:00 54.2 51.9 92 Calm 29.98 1015.2 0.01 19 0.000

Data generated by WxSolution Version 1.8.7.4, Build 2015.02.27.